Miller Field Information

FAA: VTN - ICAO: KVTN

Miller Field (Airport) Location

State Nebraska
County Cherry
City Valentine
Miller Field (Airport) is 1 mile south of Valentine, NE.
Latitude 42-51-24.1000N
Longitude 100-32-56.3000W
Elevation 2,595ft

Miller Field METARs

METAR KVTN 191152Z AUTO 12005KT 10SM CLR 13/08 A2950 RMK AO2 SLP974 70002 T01280083 10156 20117 56041
Altimeter 29.50"
Temperature 12.8°C (55.0°F)
Wind 120° at 5KT
Clouds Skies are clear.
Visibility 10.0mi
Time observed: 2022-05-19T11:52:00Z

Miller Field (Airport) Details

Status Operational
Activation September 1949
Ownership Public
Usage Public
Chart OMAHA
ATC on-site No
Beacon schedule sunset-sunrise
Beacon color clear green

Miller Field (Airport) Contacts

Owner CITY OF VALENTINE
Owner address P.O. BOX 177, 323 NORTH MAIN, VALENTINE, NE 69201-0177
Owner phone 402-376-2323
Manager EUGENE T MARTIN, SR.
Manager address BOX 425, SOUTH SIOUX CITY, NE 68776-0425
Manager phone 402-494-3667

Miller Field Radio Frequencies

Miller Field (Airport) Radio Frequencies

UNICOM 122.8
Common traffic advisory frequency (CTAF) 122.8